CheckWX is a tool to help pilots better visualize weather data.  It is not intended as a substitute for an official pre-flight weather briefing.

18:39:25 UTC

FIMP METAR
Sir Seewoosagur Ramgoolam International Airport
Port Louis, Mauritius
Current

39 mins ago

FIMP 261800Z VRB02KT 9999 VCSH SCT016 27/25 Q1013
Observed
Mar-26 @ 18:00 UTC
Wind
  • Variable at 2 KTS
Visibility
10,000+ meters
Flight Rules
VFR
Cloud Levels
  • Scattered at 1,600' AGL
Temperature
27°C / 81°F
Dewpoint
25°C / 77°F
Humidity
89%
Altimeter
29.91" Hg
Pressure
1012.92 hPa
Previous

2 hours ago

FIMP 261700Z 16004KT 9999 VCSH SCT016 27/25 Q1012
Observed
Mar-26 @ 17:00 UTC
Wind
  • 160° at 4 KTS
Visibility
10,000+ meters
Flight Rules
VFR
Cloud Levels
  • Scattered at 1,600' AGL
Temperature
27°C / 81°F
Dewpoint
25°C / 77°F
Humidity
89%
Altimeter
29.88" Hg
Pressure
1011.92 hPa
Previous

3 hours ago

FIMP 261600Z 14006KT 8000 VCSH SCT015 28/25 Q1012
Observed
Mar-26 @ 16:00 UTC
Wind
  • 140° at 6 KTS
Visibility
7,998 meters
Flight Rules
MVFR
Cloud Levels
  • Scattered at 1,500' AGL
Temperature
28°C / 82°F
Dewpoint
25°C / 77°F
Humidity
84%
Altimeter
29.88" Hg
Pressure
1011.92 hPa